sensor_id;sensor_type;location;lat;lon;timestamp;pressure;altitude;pressure_sealevel;temperature
12126;BMP180;6126;57.908;16.490;2023-04-24T00:00:28;100320.34;;;7.42
12126;BMP180;6126;57.908;16.490;2023-04-24T00:02:54;100314.56;;;7.12
12126;BMP180;6126;57.908;16.490;2023-04-24T00:05:23;100317.13;;;6.89
12126;BMP180;6126;57.908;16.490;2023-04-24T00:07:50;100318.66;;;6.71
12126;BMP180;6126;57.908;16.490;2023-04-24T00:10:19;100317.28;;;6.59
12126;BMP180;6126;57.908;16.490;2023-04-24T00:12:45;100314.56;;;6.64
12126;BMP180;6126;57.908;16.490;2023-04-24T00:15:12;100310.06;;;6.69
12126;BMP180;6126;57.908;16.490;2023-04-24T00:17:38;100315.59;;;6.58
12126;BMP180;6126;57.908;16.490;2023-04-24T00:20:05;100312.97;;;6.60
12126;BMP180;6126;57.908;16.490;2023-04-24T00:22:32;100313.81;;;6.60
12126;BMP180;6126;57.908;16.490;2023-04-24T00:24:59;100317.25;;;6.61
12126;BMP180;6126;57.908;16.490;2023-04-24T00:27:25;100310.44;;;6.57
12126;BMP180;6126;57.908;16.490;2023-04-24T00:29:50;100307.25;;;6.49
12126;BMP180;6126;57.908;16.490;2023-04-24T00:32:16;100311.84;;;6.41
12126;BMP180;6126;57.908;16.490;2023-04-24T00:34:43;100313.56;;;6.42
12126;BMP180;6126;57.908;16.490;2023-04-24T00:37:09;100312.06;;;6.35
12126;BMP180;6126;57.908;16.490;2023-04-24T00:39:35;100302.19;;;6.20
12126;BMP180;6126;57.908;16.490;2023-04-24T00:42:00;100312.75;;;6.14
12126;BMP180;6126;57.908;16.490;2023-04-24T00:44:28;100323.97;;;6.15
12126;BMP180;6126;57.908;16.490;2023-04-24T00:46:55;100325.63;;;6.17
12126;BMP180;6126;57.908;16.490;2023-04-24T00:49:22;100329.84;;;6.21
12126;BMP180;6126;57.908;16.490;2023-04-24T00:51:48;100334.91;;;6.24
12126;BMP180;6126;57.908;16.490;2023-04-24T00:54:15;100336.84;;;6.18
12126;BMP180;6126;57.908;16.490;2023-04-24T00:56:43;100330.97;;;6.13
12126;BMP180;6126;57.908;16.490;2023-04-24T00:59:09;100336.22;;;6.10
12126;BMP180;6126;57.908;16.490;2023-04-24T01:01:36;100335.59;;;6.04
12126;BMP180;6126;57.908;16.490;2023-04-24T01:04:02;100340.97;;;5.98
12126;BMP180;6126;57.908;16.490;2023-04-24T01:06:29;100336.56;;;6.00
12126;BMP180;6126;57.908;16.490;2023-04-24T01:08:58;100342.03;;;5.91
12126;BMP180;6126;57.908;16.490;2023-04-24T01:11:26;100330.13;;;5.85
12126;BMP180;6126;57.908;16.490;2023-04-24T01:13:52;100343.91;;;5.87
12126;BMP180;6126;57.908;16.490;2023-04-24T01:16:19;100339.66;;;5.85
12126;BMP180;6126;57.908;16.490;2023-04-24T01:18:47;100342.41;;;5.79
12126;BMP180;6126;57.908;16.490;2023-04-24T01:21:17;100341.63;;;5.77
12126;BMP180;6126;57.908;16.490;2023-04-24T01:23:45;100345.09;;;5.76
12126;BMP180;6126;57.908;16.490;2023-04-24T01:26:14;100342.59;;;5.73
12126;BMP180;6126;57.908;16.490;2023-04-24T01:28:41;100345.25;;;5.70
12126;BMP180;6126;57.908;16.490;2023-04-24T01:31:07;100332.38;;;5.67
12126;BMP180;6126;57.908;16.490;2023-04-24T01:33:33;100326.34;;;5.67
12126;BMP180;6126;57.908;16.490;2023-04-24T01:36:00;100333.31;;;5.65
12126;BMP180;6126;57.908;16.490;2023-04-24T01:38:26;100332.50;;;5.63
12126;BMP180;6126;57.908;16.490;2023-04-24T01:40:53;100336.00;;;5.62
12126;BMP180;6126;57.908;16.490;2023-04-24T01:43:19;100336.00;;;5.62
12126;BMP180;6126;57.908;16.490;2023-04-24T01:45:45;100330.06;;;5.58
12126;BMP180;6126;57.908;16.490;2023-04-24T01:48:12;100341.38;;;5.56
12126;BMP180;6126;57.908;16.490;2023-04-24T01:50:38;100337.13;;;5.53
12126;BMP180;6126;57.908;16.490;2023-04-24T01:53:04;100344.00;;;5.54
12126;BMP180;6126;57.908;16.490;2023-04-24T01:55:31;100344.81;;;5.56
12126;BMP180;6126;57.908;16.490;2023-04-24T01:57:59;100350.03;;;5.55
12126;BMP180;6126;57.908;16.490;2023-04-24T02:00:25;100335.31;;;5.55
12126;BMP180;6126;57.908;16.490;2023-04-24T02:02:51;100345.69;;;5.55
12126;BMP180;6126;57.908;16.490;2023-04-24T02:05:17;100350.03;;;5.55
12126;BMP180;6126;57.908;16.490;2023-04-24T02:07:43;100357.59;;;5.62
12126;BMP180;6126;57.908;16.490;2023-04-24T02:10:10;100351.47;;;5.65
12126;BMP180;6126;57.908;16.490;2023-04-24T02:12:36;100356.75;;;5.62
12126;BMP180;6126;57.908;16.490;2023-04-24T02:15:03;100356.00;;;5.58
12126;BMP180;6126;57.908;16.490;2023-04-24T02:17:29;100350.88;;;5.55
12126;BMP180;6126;57.908;16.490;2023-04-24T02:19:54;100360.47;;;5.52
12126;BMP180;6126;57.908;16.490;2023-04-24T02:22:20;100366.69;;;5.47
12126;BMP180;6126;57.908;16.490;2023-04-24T02:24:46;100364.28;;;5.41
12126;BMP180;6126;57.908;16.490;2023-04-24T02:27:12;100369.50;;;5.39
12126;BMP180;6126;57.908;16.490;2023-04-24T02:29:38;100379.00;;;5.39
12126;BMP180;6126;57.908;16.490;2023-04-24T02:32:04;100380.59;;;5.43
12126;BMP180;6126;57.908;16.490;2023-04-24T02:34:30;100383.13;;;5.46
12126;BMP180;6126;57.908;16.490;2023-04-24T02:36:56;100383.19;;;5.43
12126;BMP180;6126;57.908;16.490;2023-04-24T02:39:22;100381.56;;;5.40
12126;BMP180;6126;57.908;16.490;2023-04-24T02:41:48;100372.91;;;5.40
12126;BMP180;6126;57.908;16.490;2023-04-24T02:44:13;100381.59;;;5.39
12126;BMP180;6126;57.908;16.490;2023-04-24T02:46:39;100379.00;;;5.39
12126;BMP180;6126;57.908;16.490;2023-04-24T02:49:07;100381.50;;;5.42
12126;BMP180;6126;57.908;16.490;2023-04-24T02:51:33;100368.38;;;5.48
12126;BMP180;6126;57.908;16.490;2023-04-24T02:53:59;100365.56;;;5.55
12126;BMP180;6126;57.908;16.490;2023-04-24T02:56:25;100372.06;;;5.69
12126;BMP180;6126;57.908;16.490;2023-04-24T02:58:51;100360.19;;;5.62
12126;BMP180;6126;57.908;16.490;2023-04-24T03:01:16;100373.13;;;5.62
12126;BMP180;6126;57.908;16.490;2023-04-24T03:03:43;100381.72;;;5.64
12126;BMP180;6126;57.908;16.490;2023-04-24T03:06:09;100377.34;;;5.66
12126;BMP180;6126;57.908;16.490;2023-04-24T03:08:36;100365.97;;;5.70
12126;BMP180;6126;57.908;16.490;2023-04-24T03:11:03;100373.69;;;5.73
12126;BMP180;6126;57.908;16.490;2023-04-24T03:13:29;100375.34;;;5.76
12126;BMP180;6126;57.908;16.490;2023-04-24T03:15:55;100375.22;;;5.80
12126;BMP180;6126;57.908;16.490;2023-04-24T03:18:20;100376.91;;;5.81
12126;BMP180;6126;57.908;16.490;2023-04-24T03:20:47;100375.13;;;5.83
12126;BMP180;6126;57.908;16.490;2023-04-24T03:23:13;100375.97;;;5.83
12126;BMP180;6126;57.908;16.490;2023-04-24T03:25:39;100360.38;;;5.85
12126;BMP180;6126;57.908;16.490;2023-04-24T03:28:05;100388.00;;;5.86
12126;BMP180;6126;57.908;16.490;2023-04-24T03:30:31;100370.75;;;5.85
12126;BMP180;6126;57.908;16.490;2023-04-24T03:32:57;100375.03;;;5.86
12126;BMP180;6126;57.908;16.490;2023-04-24T03:35:23;100381.03;;;5.88
12126;BMP180;6126;57.908;16.490;2023-04-24T03:37:48;100381.78;;;5.91
12126;BMP180;6126;57.908;16.490;2023-04-24T03:40:14;100386.03;;;5.94
12126;BMP180;6126;57.908;16.490;2023-04-24T03:42:40;100381.69;;;5.94
12126;BMP180;6126;57.908;16.490;2023-04-24T03:45:07;100390.28;;;5.96
12126;BMP180;6126;57.908;16.490;2023-04-24T03:47:33;100393.63;;;6.00
12126;BMP180;6126;57.908;16.490;2023-04-24T03:49:59;100391.91;;;6.00
12126;BMP180;6126;57.908;16.490;2023-04-24T03:52:25;100406.53;;;6.03
12126;BMP180;6126;57.908;16.490;2023-04-24T03:54:51;100404.63;;;6.08
12126;BMP180;6126;57.908;16.490;2023-04-24T03:57:17;100401.25;;;6.06
12126;BMP180;6126;57.908;16.490;2023-04-24T03:59:43;100403.84;;;6.06
12126;BMP180;6126;57.908;16.490;2023-04-24T04:02:09;100402.03;;;6.08
12126;BMP180;6126;57.908;16.490;2023-04-24T04:04:35;100395.97;;;6.09
12126;BMP180;6126;57.908;16.490;2023-04-24T04:07:01;100393.31;;;6.10
12126;BMP180;6126;57.908;16.490;2023-04-24T04:09:28;100400.22;;;6.11
12126;BMP180;6126;57.908;16.490;2023-04-24T04:11:54;100397.66;;;6.10
12126;BMP180;6126;57.908;16.490;2023-04-24T04:14:22;100402.75;;;6.13
12126;BMP180;6126;57.908;16.490;2023-04-24T04:16:48;100406.88;;;6.18
12126;BMP180;6126;57.908;16.490;2023-04-24T04:19:14;100415.44;;;6.21
12126;BMP180;6126;57.908;16.490;2023-04-24T04:21:40;100404.06;;;6.25
12126;BMP180;6126;57.908;16.490;2023-04-24T04:24:06;100415.06;;;6.33
12126;BMP180;6126;57.908;16.490;2023-04-24T04:26:33;100403.81;;;6.34
12126;BMP180;6126;57.908;16.490;2023-04-24T04:28:59;100409.75;;;6.36
12126;BMP180;6126;57.908;16.490;2023-04-24T04:31:26;100397.50;;;6.41
12126;BMP180;6126;57.908;16.490;2023-04-24T04:33:52;100400.91;;;6.43
12126;BMP180;6126;57.908;16.490;2023-04-24T04:36:18;100407.34;;;6.32
12126;BMP180;6126;57.908;16.490;2023-04-24T04:38:44;100408.16;;;6.34
12126;BMP180;6126;57.908;16.490;2023-04-24T04:41:10;100401.97;;;6.36
12126;BMP180;6126;57.908;16.490;2023-04-24T04:43:36;100399.50;;;6.33
12126;BMP180;6126;57.908;16.490;2023-04-24T04:46:03;100395.31;;;6.29
12126;BMP180;6126;57.908;16.490;2023-04-24T04:48:29;100408.28;;;6.29
12126;BMP180;6126;57.908;16.490;2023-04-24T04:50:57;100403.84;;;6.33
12126;BMP180;6126;57.908;16.490;2023-04-24T04:53:23;100421.88;;;6.37
12126;BMP180;6126;57.908;16.490;2023-04-24T04:55:49;100410.25;;;6.48
12126;BMP180;6126;57.908;16.490;2023-04-24T04:58:15;100405.91;;;6.49
12126;BMP180;6126;57.908;16.490;2023-04-24T05:00:41;100401.41;;;6.54
12126;BMP180;6126;57.908;16.490;2023-04-24T05:03:08;100411.63;;;6.60
12126;BMP180;6126;57.908;16.490;2023-04-24T05:05:33;100404.50;;;6.65
12126;BMP180;6126;57.908;16.490;2023-04-24T05:07:59;100400.00;;;6.70
12126;BMP180;6126;57.908;16.490;2023-04-24T05:10:25;100405.19;;;6.71
12126;BMP180;6126;57.908;16.490;2023-04-24T05:12:51;100402.56;;;6.71
12126;BMP180;6126;57.908;16.490;2023-04-24T05:15:17;100405.91;;;6.75
12126;BMP180;6126;57.908;16.490;2023-04-24T05:17:43;100402.50;;;6.73
12126;BMP180;6126;57.908;16.490;2023-04-24T05:20:09;100398.94;;;6.76
12126;BMP180;6126;57.908;16.490;2023-04-24T05:22:35;100403.19;;;6.79
12126;BMP180;6126;57.908;16.490;2023-04-24T05:25:01;100404.13;;;6.76
12126;BMP180;6126;57.908;16.490;2023-04-24T05:27:28;100412.81;;;6.76
12126;BMP180;6126;57.908;16.490;2023-04-24T05:29:54;100411.91;;;6.76
12126;BMP180;6126;57.908;16.490;2023-04-24T05:32:20;100413.69;;;6.75
12126;BMP180;6126;57.908;16.490;2023-04-24T05:34:46;100409.31;;;6.76
12126;BMP180;6126;57.908;16.490;2023-04-24T05:37:12;100416.19;;;6.77
12126;BMP180;6126;57.908;16.490;2023-04-24T05:39:38;100410.84;;;6.82
12126;BMP180;6126;57.908;16.490;2023-04-24T05:42:05;100429.78;;;6.85
12126;BMP180;6126;57.908;16.490;2023-04-24T05:44:31;100425.38;;;6.87
12126;BMP180;6126;57.908;16.490;2023-04-24T05:46:57;100414.13;;;6.88
12126;BMP180;6126;57.908;16.490;2023-04-24T05:49:23;100421.94;;;6.87
12126;BMP180;6126;57.908;16.490;2023-04-24T05:51:48;100429.44;;;6.96
12126;BMP180;6126;57.908;16.490;2023-04-24T05:54:14;100421.38;;;7.03
12126;BMP180;6126;57.908;16.490;2023-04-24T05:56:41;100430.78;;;7.07
12126;BMP180;6126;57.908;16.490;2023-04-24T05:59:08;100439.28;;;7.12
12126;BMP180;6126;57.908;16.490;2023-04-24T06:01:34;100440.84;;;7.16
12126;BMP180;6126;57.908;16.490;2023-04-24T06:03:59;100446.84;;;7.18
12126;BMP180;6126;57.908;16.490;2023-04-24T06:06:26;100456.25;;;7.22
12126;BMP180;6126;57.908;16.490;2023-04-24T06:08:52;100444.63;;;7.32
12126;BMP180;6126;57.908;16.490;2023-04-24T06:11:19;100453.94;;;7.38
12126;BMP180;6126;57.908;16.490;2023-04-24T06:13:45;100459.25;;;7.36
12126;BMP180;6126;57.908;16.490;2023-04-24T06:16:11;100462.59;;;7.37
12126;BMP180;6126;57.908;16.490;2023-04-24T06:18:37;100459.25;;;7.36
12126;BMP180;6126;57.908;16.490;2023-04-24T06:21:03;100456.63;;;7.36
12126;BMP180;6126;57.908;16.490;2023-04-24T06:23:29;100448.41;;;7.47
12126;BMP180;6126;57.908;16.490;2023-04-24T06:25:58;100446.75;;;7.45
12126;BMP180;6126;57.908;16.490;2023-04-24T06:28:24;100446.44;;;7.54
12126;BMP180;6126;57.908;16.490;2023-04-24T06:30:50;100441.13;;;7.57
12126;BMP180;6126;57.908;16.490;2023-04-24T06:33:16;100447.03;;;7.62
12126;BMP180;6126;57.908;16.490;2023-04-24T06:35:42;100453.81;;;7.66
12126;BMP180;6126;57.908;16.490;2023-04-24T06:38:08;100444.16;;;7.69
12126;BMP180;6126;57.908;16.490;2023-04-24T06:40:34;100440.75;;;7.67
12126;BMP180;6126;57.908;16.490;2023-04-24T06:43:00;100439.00;;;7.68
12126;BMP180;6126;57.908;16.490;2023-04-24T06:45:29;100437.19;;;7.69
12126;BMP180;6126;57.908;16.490;2023-04-24T06:47:55;100444.66;;;7.78
12126;BMP180;6126;57.908;16.490;2023-04-24T06:50:22;100443.59;;;7.84
12126;BMP180;6126;57.908;16.490;2023-04-24T06:52:48;100444.44;;;7.84
12126;BMP180;6126;57.908;16.490;2023-04-24T06:55:13;100430.69;;;7.81
12126;BMP180;6126;57.908;16.490;2023-04-24T06:57:42;100438.56;;;7.79
12126;BMP180;6126;57.908;16.490;2023-04-24T07:00:09;100443.84;;;7.76
12126;BMP180;6126;57.908;16.490;2023-04-24T07:02:35;100450.81;;;7.76
12126;BMP180;6126;57.908;16.490;2023-04-24T07:05:01;100460.44;;;7.74
12126;BMP180;6126;57.908;16.490;2023-04-24T07:07:27;100458.72;;;7.73
12126;BMP180;6126;57.908;16.490;2023-04-24T07:09:53;100466.97;;;7.85
12126;BMP180;6126;57.908;16.490;2023-04-24T07:12:19;100462.25;;;7.95
12126;BMP180;6126;57.908;16.490;2023-04-24T07:14:47;100458.19;;;7.88
12126;BMP180;6126;57.908;16.490;2023-04-24T07:17:13;100464.00;;;7.94
12126;BMP180;6126;57.908;16.490;2023-04-24T07:19:40;100466.31;;;7.79
12126;BMP180;6126;57.908;16.490;2023-04-24T07:22:06;100457.84;;;7.74
12126;BMP180;6126;57.908;16.490;2023-04-24T07:24:32;100457.50;;;7.83
12126;BMP180;6126;57.908;16.490;2023-04-24T07:26:58;100457.91;;;7.95
12126;BMP180;6126;57.908;16.490;2023-04-24T07:29:24;100450.47;;;8.09
12126;BMP180;6126;57.908;16.490;2023-04-24T07:31:50;100445.72;;;8.20
12126;BMP180;6126;57.908;16.490;2023-04-24T07:34:16;100448.94;;;8.26
12126;BMP180;6126;57.908;16.490;2023-04-24T07:36:42;100445.13;;;8.34
12126;BMP180;6126;57.908;16.490;2023-04-24T07:39:08;100449.97;;;8.43
12126;BMP180;6126;57.908;16.490;2023-04-24T07:41:34;100438.69;;;8.44
12126;BMP180;6126;57.908;16.490;2023-04-24T07:44:00;100435.28;;;8.42
12126;BMP180;6126;57.908;16.490;2023-04-24T07:46:26;100434.66;;;8.36
12126;BMP180;6126;57.908;16.490;2023-04-24T07:48:55;100441.69;;;8.34
12126;BMP180;6126;57.908;16.490;2023-04-24T07:51:21;100436.50;;;8.34
12126;BMP180;6126;57.908;16.490;2023-04-24T07:53:47;100426.06;;;8.34
12126;BMP180;6126;57.908;16.490;2023-04-24T07:56:13;100423.34;;;8.37
12126;BMP180;6126;57.908;16.490;2023-04-24T07:58:39;100424.88;;;8.42
12126;BMP180;6126;57.908;16.490;2023-04-24T08:01:06;100427.63;;;8.38
12126;BMP180;6126;57.908;16.490;2023-04-24T08:03:32;100427.63;;;8.38
12126;BMP180;6126;57.908;16.490;2023-04-24T08:05:58;100425.00;;;8.39
12126;BMP180;6126;57.908;16.490;2023-04-24T08:08:24;100434.31;;;8.45
12126;BMP180;6126;57.908;16.490;2023-04-24T08:10:50;100437.63;;;8.48
12126;BMP180;6126;57.908;16.490;2023-04-24T08:13:16;100440.13;;;8.51
12126;BMP180;6126;57.908;16.490;2023-04-24T08:15:42;100436.41;;;8.57
12126;BMP180;6126;57.908;16.490;2023-04-24T08:18:08;100444.03;;;8.62
12126;BMP180;6126;57.908;16.490;2023-04-24T08:20:34;100451.59;;;8.68
12126;BMP180;6126;57.908;16.490;2023-04-24T08:23:00;100451.31;;;8.74
12126;BMP180;6126;57.908;16.490;2023-04-24T08:25:26;100442.25;;;8.84
12126;BMP180;6126;57.908;16.490;2023-04-24T08:27:52;100444.22;;;8.99
12126;BMP180;6126;57.908;16.490;2023-04-24T08:30:18;100448.78;;;9.14
12126;BMP180;6126;57.908;16.490;2023-04-24T08:32:44;100450.97;;;9.24
12126;BMP180;6126;57.908;16.490;2023-04-24T08:35:10;100445.56;;;9.28
12126;BMP180;6126;57.908;16.490;2023-04-24T08:37:36;100447.84;;;9.36
12126;BMP180;6126;57.908;16.490;2023-04-24T08:40:15;100440.47;;;9.45
12126;BMP180;6126;57.908;16.490;2023-04-24T08:42:43;100439.25;;;9.53
12126;BMP180;6126;57.908;16.490;2023-04-24T08:45:12;100445.16;;;9.57
12126;BMP180;6126;57.908;16.490;2023-04-24T08:47:40;100437.28;;;9.58
12126;BMP180;6126;57.908;16.490;2023-04-24T08:50:07;100433.69;;;9.61
12126;BMP180;6126;57.908;16.490;2023-04-24T08:52:35;100426.84;;;9.58
12126;BMP180;6126;57.908;16.490;2023-04-24T08:55:01;100425.28;;;9.54
12126;BMP180;6126;57.908;16.490;2023-04-24T08:57:28;100417.50;;;9.53
12126;BMP180;6126;57.908;16.490;2023-04-24T08:59:58;100423.38;;;9.58
12126;BMP180;6126;57.908;16.490;2023-04-24T09:02:24;100422.00;;;9.69
12126;BMP180;6126;57.908;16.490;2023-04-24T09:04:52;100416.16;;;9.83
12126;BMP180;6126;57.908;16.490;2023-04-24T09:07:22;100416.63;;;9.92
12126;BMP180;6126;57.908;16.490;2023-04-24T09:09:51;100417.06;;;10.19
12126;BMP180;6126;57.908;16.490;2023-04-24T09:12:18;100410.19;;;10.53
12126;BMP180;6126;57.908;16.490;2023-04-24T09:14:45;100404.63;;;10.77
12126;BMP180;6126;57.908;16.490;2023-04-24T09:17:12;100397.44;;;10.99
12126;BMP180;6126;57.908;16.490;2023-04-24T09:19:38;100404.13;;;11.21
12126;BMP180;6126;57.908;16.490;2023-04-24T09:22:09;100397.00;;;11.41
12126;BMP180;6126;57.908;16.490;2023-04-24T09:24:35;100404.75;;;11.60
12126;BMP180;6126;57.908;16.490;2023-04-24T09:27:01;100386.41;;;11.60
12126;BMP180;6126;57.908;16.490;2023-04-24T09:29:28;100400.78;;;11.68
12126;BMP180;6126;57.908;16.490;2023-04-24T09:31:54;100400.84;;;11.83
12126;BMP180;6126;57.908;16.490;2023-04-24T09:34:23;100399.66;;;11.89
12126;BMP180;6126;57.908;16.490;2023-04-24T09:36:50;100406.50;;;11.91
12126;BMP180;6126;57.908;16.490;2023-04-24T09:39:17;100403.63;;;11.80
12126;BMP180;6126;57.908;16.490;2023-04-24T09:41:56;100399.00;;;11.69
12126;BMP180;6126;57.908;16.490;2023-04-24T09:44:27;100394.72;;;11.68
12126;BMP180;6126;57.908;16.490;2023-04-24T09:46:56;100400.63;;;11.71
12126;BMP180;6126;57.908;16.490;2023-04-24T09:49:30;100400.59;;;11.88
12126;BMP180;6126;57.908;16.490;2023-04-24T09:52:11;100404.34;;;12.14
12126;BMP180;6126;57.908;16.490;2023-04-24T09:54:39;100407.22;;;12.40
12126;BMP180;6126;57.908;16.490;2023-04-24T09:57:08;100392.09;;;12.61
12126;BMP180;6126;57.908;16.490;2023-04-24T09:59:34;100395.16;;;12.84
12126;BMP180;6126;57.908;16.490;2023-04-24T10:02:00;100391.72;;;12.97
12126;BMP180;6126;57.908;16.490;2023-04-24T10:04:28;100379.59;;;13.10
12126;BMP180;6126;57.908;16.490;2023-04-24T10:06:57;100375.38;;;13.07
12126;BMP180;6126;57.908;16.490;2023-04-24T10:09:26;100369.91;;;12.96
12126;BMP180;6126;57.908;16.490;2023-04-24T10:11:54;100379.78;;;12.78
12126;BMP180;6126;57.908;16.490;2023-04-24T10:14:24;100381.28;;;12.51
12126;BMP180;6126;57.908;16.490;2023-04-24T10:16:54;100382.47;;;12.31
12126;BMP180;6126;57.908;16.490;2023-04-24T10:19:20;100374.94;;;12.25
12126;BMP180;6126;57.908;16.490;2023-04-24T10:21:47;100374.88;;;12.26
12126;BMP180;6126;57.908;16.490;2023-04-24T10:24:15;100386.03;;;12.30
12126;BMP180;6126;57.908;16.490;2023-04-24T10:26:42;100390.19;;;12.18
12126;BMP180;6126;57.908;16.490;2023-04-24T10:29:11;100393.84;;;11.99
12126;BMP180;6126;57.908;16.490;2023-04-24T10:31:38;100388.84;;;11.79
12126;BMP180;6126;57.908;16.490;2023-04-24T10:34:06;100389.47;;;11.68
12126;BMP180;6126;57.908;16.490;2023-04-24T10:36:34;100392.31;;;11.63
12126;BMP180;6126;57.908;16.490;2023-04-24T10:39:03;100398.06;;;11.54
12126;BMP180;6126;57.908;16.490;2023-04-24T10:41:32;100406.41;;;11.61
12126;BMP180;6126;57.908;16.490;2023-04-24T10:44:07;100395.38;;;11.88
12126;BMP180;6126;57.908;16.490;2023-04-24T10:46:34;100377.38;;;11.97
12126;BMP180;6126;57.908;16.490;2023-04-24T10:49:06;100379.25;;;11.95
12126;BMP180;6126;57.908;16.490;2023-04-24T10:51:52;100381.00;;;11.95
12126;BMP180;6126;57.908;16.490;2023-04-24T10:54:35;100383.13;;;12.03
12126;BMP180;6126;57.908;16.490;2023-04-24T10:57:31;100375.88;;;12.08
12126;BMP180;6126;57.908;16.490;2023-04-24T11:00:18;100375.78;;;12.10
12126;BMP180;6126;57.908;16.490;2023-04-24T11:02:47;100384.84;;;12.20
12126;BMP180;6126;57.908;16.490;2023-04-24T11:05:17;100375.19;;;12.35
12126;BMP180;6126;57.908;16.490;2023-04-24T11:08:23;100371.91;;;12.32
12126;BMP180;6126;57.908;16.490;2023-04-24T11:13:24;100367.00;;;12.41
12126;BMP180;6126;57.908;16.490;2023-04-24T11:22:14;100357.22;;;12.30
12126;BMP180;6126;57.908;16.490;2023-04-24T11:24:49;100357.03;;;12.32
12126;BMP180;6126;57.908;16.490;2023-04-24T11:27:21;100350.53;;;12.39
12126;BMP180;6126;57.908;16.490;2023-04-24T11:35:22;100337.91;;;12.61
12126;BMP180;6126;57.908;16.490;2023-04-24T11:37:53;100326.88;;;12.70
12126;BMP180;6126;57.908;16.490;2023-04-24T11:40:21;100327.34;;;12.63
12126;BMP180;6126;57.908;16.490;2023-04-24T11:42:53;100320.09;;;12.52
12126;BMP180;6126;57.908;16.490;2023-04-24T11:45:27;100312.13;;;12.38
12126;BMP180;6126;57.908;16.490;2023-04-24T11:47:53;100313.69;;;12.27
12126;BMP180;6126;57.908;16.490;2023-04-24T11:50:23;100312.31;;;12.20
12126;BMP180;6126;57.908;16.490;2023-04-24T11:52:51;100317.13;;;12.28
12126;BMP180;6126;57.908;16.490;2023-04-24T11:57:52;100322.28;;;12.60
12126;BMP180;6126;57.908;16.490;2023-04-24T12:00:26;100323.50;;;12.68
12126;BMP180;6126;57.908;16.490;2023-04-24T12:03:10;100305.34;;;12.65
12126;BMP180;6126;57.908;16.490;2023-04-24T12:05:38;100308.50;;;12.70
12126;BMP180;6126;57.908;16.490;2023-04-24T12:08:04;100294.75;;;12.82
12126;BMP180;6126;57.908;16.490;2023-04-24T12:10:32;100290.66;;;13.05
12126;BMP180;6126;57.908;16.490;2023-04-24T12:12:59;100301.94;;;13.35
12126;BMP180;6126;57.908;16.490;2023-04-24T12:15:26;100307.13;;;13.64
12126;BMP180;6126;57.908;16.490;2023-04-24T12:17:54;100303.31;;;13.82
12126;BMP180;6126;57.908;16.490;2023-04-24T12:20:32;100303.16;;;13.98
12126;BMP180;6126;57.908;16.490;2023-04-24T12:23:00;100305.31;;;14.06
12126;BMP180;6126;57.908;16.490;2023-04-24T12:25:29;100309.81;;;13.90
12126;BMP180;6126;57.908;16.490;2023-04-24T12:30:38;100322.00;;;13.36
12126;BMP180;6126;57.908;16.490;2023-04-24T12:33:04;100324.63;;;13.22
12126;BMP180;6126;57.908;16.490;2023-04-24T12:35:32;100326.81;;;13.00
12126;BMP180;6126;57.908;16.490;2023-04-24T12:38:15;100314.63;;;12.70
12126;BMP180;6126;57.908;16.490;2023-04-24T12:40:42;100314.66;;;12.55
12126;BMP180;6126;57.908;16.490;2023-04-24T12:43:19;100313.50;;;12.45
12126;BMP180;6126;57.908;16.490;2023-04-24T12:45:49;100318.72;;;12.45
12126;BMP180;6126;57.908;16.490;2023-04-24T12:48:15;100324.66;;;12.33
12126;BMP180;6126;57.908;16.490;2023-04-24T12:50:42;100324.25;;;12.10
12126;BMP180;6126;57.908;16.490;2023-04-24T12:53:09;100318.09;;;11.96
12126;BMP180;6126;57.908;16.490;2023-04-24T12:55:35;100320.94;;;11.76
12126;BMP180;6126;57.908;16.490;2023-04-24T12:58:01;100324.38;;;11.62
12126;BMP180;6126;57.908;16.490;2023-04-24T13:00:28;100322.78;;;11.59
12126;BMP180;6126;57.908;16.490;2023-04-24T13:02:54;100329.84;;;11.57
12126;BMP180;6126;57.908;16.490;2023-04-24T13:05:20;100322.22;;;11.53
12126;BMP180;6126;57.908;16.490;2023-04-24T13:07:46;100315.66;;;11.46
12126;BMP180;6126;57.908;16.490;2023-04-24T13:10:12;100316.66;;;11.43
12126;BMP180;6126;57.908;16.490;2023-04-24T13:12:39;100304.19;;;11.48
12126;BMP180;6126;57.908;16.490;2023-04-24T13:15:06;100304.06;;;11.67
12126;BMP180;6126;57.908;16.490;2023-04-24T13:17:33;100296.47;;;11.93
12126;BMP180;6126;57.908;16.490;2023-04-24T13:19:59;100297.91;;;12.13
12126;BMP180;6126;57.908;16.490;2023-04-24T13:22:25;100300.84;;;12.23
12126;BMP180;6126;57.908;16.490;2023-04-24T13:24:51;100286.31;;;12.17
12126;BMP180;6126;57.908;16.490;2023-04-24T13:27:17;100274.41;;;12.12
12126;BMP180;6126;57.908;16.490;2023-04-24T13:29:43;100278.81;;;12.11
12126;BMP180;6126;57.908;16.490;2023-04-24T13:32:09;100284.81;;;12.13
12126;BMP180;6126;57.908;16.490;2023-04-24T13:34:35;100275.34;;;12.11
12126;BMP180;6126;57.908;16.490;2023-04-24T13:37:03;100269.09;;;11.98
12126;BMP180;6126;57.908;16.490;2023-04-24T13:39:32;100265.06;;;11.93
12126;BMP180;6126;57.908;16.490;2023-04-24T13:41:58;100266.41;;;11.84
12126;BMP180;6126;57.908;16.490;2023-04-24T13:44:24;100264.38;;;11.74
12126;BMP180;6126;57.908;16.490;2023-04-24T13:46:53;100260.72;;;11.76
12126;BMP180;6126;57.908;16.490;2023-04-24T13:49:23;100252.72;;;11.79
12126;BMP180;6126;57.908;16.490;2023-04-24T13:51:51;100263.19;;;11.79
12126;BMP180;6126;57.908;16.490;2023-04-24T13:54:17;100257.09;;;11.79
12126;BMP180;6126;57.908;16.490;2023-04-24T13:56:43;100249.50;;;11.74
12126;BMP180;6126;57.908;16.490;2023-04-24T13:59:12;100251.53;;;11.70
12126;BMP180;6126;57.908;16.490;2023-04-24T14:01:38;100233.13;;;11.56
12126;BMP180;6126;57.908;16.490;2023-04-24T14:04:04;100249.97;;;11.50
12126;BMP180;6126;57.908;16.490;2023-04-24T14:06:30;100242.22;;;11.49
12126;BMP180;6126;57.908;16.490;2023-04-24T14:08:56;100241.88;;;11.55
12126;BMP180;6126;57.908;16.490;2023-04-24T14:11:22;100238.19;;;11.59
12126;BMP180;6126;57.908;16.490;2023-04-24T14:13:49;100232.78;;;11.62
12126;BMP180;6126;57.908;16.490;2023-04-24T14:16:15;100241.53;;;11.61
12126;BMP180;6126;57.908;16.490;2023-04-24T14:18:41;100236.75;;;11.53
12126;BMP180;6126;57.908;16.490;2023-04-24T14:21:07;100228.22;;;11.50
12126;BMP180;6126;57.908;16.490;2023-04-24T14:23:33;100238.06;;;11.45